createdAt,value
2019-03-22T00:00:49.726Z,70.60
2019-03-22T00:03:15.996Z,70.60
2019-03-22T00:05:42.290Z,70.60
2019-03-22T00:08:08.594Z,70.50
2019-03-22T00:10:34.900Z,70.50
2019-03-22T00:13:01.254Z,70.50
2019-03-22T00:15:27.477Z,70.70
2019-03-22T00:17:53.889Z,71.10
2019-03-22T00:20:20.252Z,71.30
2019-03-22T00:22:46.643Z,71.30
2019-03-22T00:25:13.005Z,71.60
2019-03-22T00:27:39.302Z,71.70
2019-03-22T00:30:07.747Z,71.70
2019-03-22T00:32:34.205Z,71.80
2019-03-22T00:35:00.557Z,71.80
2019-03-22T00:37:26.838Z,72.10
2019-03-22T00:39:53.148Z,72.40
2019-03-22T00:42:19.458Z,72.40
2019-03-22T00:44:45.880Z,72.70
2019-03-22T00:47:12.206Z,72.80
2019-03-22T00:49:38.550Z,72.90
2019-03-22T00:52:04.856Z,73.00
2019-03-22T00:54:31.124Z,73.10
2019-03-22T00:56:57.759Z,73.20
2019-03-22T00:59:24.067Z,73.30
2019-03-22T01:01:50.334Z,73.60
2019-03-22T01:04:36.476Z,73.60
2019-03-22T01:07:03.139Z,73.60
2019-03-22T01:09:29.418Z,73.40
2019-03-22T01:11:55.754Z,73.60
2019-03-22T01:14:22.026Z,73.70
2019-03-22T01:16:48.351Z,73.90
2019-03-22T01:19:14.622Z,74.10
2019-03-22T01:21:40.926Z,74.10
2019-03-22T01:24:21.368Z,74.90
2019-03-22T01:26:47.663Z,74.30
2019-03-22T01:29:13.924Z,74.30
2019-03-22T01:31:40.274Z,74.20
2019-03-22T01:34:26.501Z,73.80
2019-03-22T01:36:52.798Z,73.60
2019-03-22T01:39:19.186Z,73.40
2019-03-22T01:41:45.459Z,74.10
2019-03-22T01:44:11.904Z,73.40
2019-03-22T01:46:38.266Z,73.50
2019-03-22T01:49:04.630Z,73.50
2019-03-22T01:51:31.252Z,73.60
2019-03-22T01:53:57.533Z,73.40
2019-03-22T01:56:23.810Z,73.50
2019-03-22T01:58:50.287Z,73.40
2019-03-22T02:01:16.662Z,73.40
2019-03-22T02:03:42.933Z,73.50
2019-03-22T02:06:09.276Z,73.70
2019-03-22T02:08:35.576Z,73.70
2019-03-22T02:11:01.866Z,73.80
2019-03-22T02:13:28.154Z,73.70
2019-03-22T02:15:55.452Z,73.90
2019-03-22T02:18:21.745Z,74.20
2019-03-22T02:20:48.005Z,74.30
2019-03-22T02:23:14.308Z,74.30
2019-03-22T02:25:40.637Z,74.30
2019-03-22T02:28:06.942Z,74.60
2019-03-22T02:30:33.258Z,74.30
2019-03-22T02:32:59.541Z,74.40
2019-03-22T02:35:29.013Z,74.20
2019-03-22T02:37:54.127Z,74.30
2019-03-22T02:40:20.471Z,74.40
2019-03-22T02:42:46.873Z,74.40
2019-03-22T02:45:14.684Z,74.50
2019-03-22T02:47:41.021Z,74.60
2019-03-22T02:50:17.981Z,74.60
2019-03-22T02:52:38.499Z,74.80
2019-03-22T02:55:07.219Z,75.20
2019-03-22T02:57:34.714Z,75.10
2019-03-22T03:00:01.110Z,75.20
2019-03-22T03:02:27.387Z,75.10
2019-03-22T03:04:53.788Z,75.10
2019-03-22T03:07:20.086Z,75.60
2019-03-22T03:09:46.348Z,75.80
2019-03-22T03:12:12.918Z,75.90
2019-03-22T03:14:39.197Z,76.00
2019-03-22T03:17:05.529Z,75.90
2019-03-22T03:19:31.805Z,75.90
2019-03-22T03:21:58.189Z,75.90
2019-03-22T03:24:24.695Z,75.80
2019-03-22T03:26:50.964Z,76.20
2019-03-22T03:29:17.226Z,76.40
2019-03-22T03:31:43.489Z,76.60
2019-03-22T03:34:09.973Z,76.60
2019-03-22T03:36:36.213Z,76.70
2019-03-22T03:39:06.005Z,77.50
2019-03-22T03:41:32.468Z,76.90
2019-03-22T03:43:58.864Z,77.10
2019-03-22T03:46:25.277Z,77.10
2019-03-22T03:48:51.849Z,77.00
2019-03-22T03:51:20.652Z,76.90
2019-03-22T03:53:46.924Z,76.90
2019-03-22T03:56:13.205Z,76.90
2019-03-22T03:58:51.678Z,77.00
2019-03-22T04:01:07.706Z,77.00
2019-03-22T04:03:33.976Z,76.90
2019-03-22T04:06:00.439Z,77.10
2019-03-22T04:08:26.761Z,77.00
2019-03-22T04:10:53.030Z,77.10
2019-03-22T04:13:19.339Z,77.10
2019-03-22T04:15:46.184Z,77.20
2019-03-22T04:18:12.498Z,77.20
2019-03-22T04:20:38.823Z,77.00
2019-03-22T04:23:05.068Z,77.00
2019-03-22T04:25:31.386Z,77.10
2019-03-22T04:27:57.663Z,77.20
2019-03-22T04:30:23.967Z,77.10
2019-03-22T04:32:50.205Z,77.10
2019-03-22T04:35:16.497Z,77.10
2019-03-22T04:37:42.752Z,77.10
2019-03-22T04:40:27.826Z,77.00
2019-03-22T04:42:54.380Z,77.10
2019-03-22T04:45:22.768Z,76.80
2019-03-22T04:47:54.785Z,76.80
2019-03-22T04:50:21.663Z,76.90
2019-03-22T04:52:49.728Z,77.10
2019-03-22T04:55:17.520Z,77.10
2019-03-22T04:57:44.194Z,77.20
2019-03-22T05:00:11.243Z,77.20
2019-03-22T05:02:39.730Z,77.10
2019-03-22T05:05:09.728Z,77.20
2019-03-22T05:07:36.431Z,77.20
2019-03-22T05:10:05.490Z,77.40
2019-03-22T05:12:55.342Z,77.40
2019-03-22T05:15:22.839Z,77.70
2019-03-22T05:17:49.623Z,77.80
2019-03-22T05:20:18.943Z,77.90
2019-03-22T05:22:47.134Z,78.10
2019-03-22T05:25:14.015Z,78.00
2019-03-22T05:27:43.537Z,78.00
2019-03-22T05:30:33.644Z,78.00
2019-03-22T05:32:59.993Z,77.90
2019-03-22T05:35:26.304Z,77.90
2019-03-22T05:37:52.565Z,77.90
2019-03-22T05:40:18.879Z,78.00
2019-03-22T05:42:45.128Z,78.00
2019-03-22T05:45:11.405Z,78.00
2019-03-22T05:47:37.656Z,78.00
2019-03-22T05:50:04.997Z,77.60
2019-03-22T05:52:31.259Z,77.50
2019-03-22T05:54:57.523Z,77.50
2019-03-22T05:57:23.820Z,77.70
2019-03-22T05:59:50.078Z,77.80
2019-03-22T06:02:16.344Z,77.80
2019-03-22T06:04:42.623Z,77.90
2019-03-22T06:07:08.942Z,78.00
2019-03-22T06:09:35.238Z,78.10
2019-03-22T06:12:01.499Z,78.30
2019-03-22T06:14:27.854Z,78.10
2019-03-22T06:16:54.170Z,77.90
2019-03-22T06:19:20.406Z,77.60
2019-03-22T06:21:46.709Z,77.30
2019-03-22T06:24:13.226Z,76.70
2019-03-22T06:26:39.500Z,76.40
2019-03-22T06:29:05.837Z,76.20
2019-03-22T06:31:32.269Z,76.30
2019-03-22T06:34:00.814Z,76.60
2019-03-22T06:36:27.151Z,75.00
2019-03-22T06:38:53.578Z,74.90
2019-03-22T06:41:19.901Z,73.70
2019-03-22T06:43:46.185Z,71.90
2019-03-22T06:46:12.569Z,70.00
2019-03-22T06:48:38.817Z,68.40
2019-03-22T06:51:05.116Z,65.90
2019-03-22T06:53:31.366Z,64.50
2019-03-22T06:55:57.720Z,63.20
2019-03-22T06:58:24.359Z,61.10
2019-03-22T07:00:50.768Z,61.60
2019-03-22T07:03:17.067Z,58.70
2019-03-22T07:05:43.562Z,58.00
2019-03-22T07:08:09.842Z,56.90
2019-03-22T07:10:36.196Z,56.70
2019-03-22T07:13:02.643Z,60.30
2019-03-22T07:15:30.958Z,56.70
2019-03-22T07:17:57.241Z,55.80
2019-03-22T07:20:23.499Z,55.60
2019-03-22T07:22:49.777Z,54.60
2019-03-22T07:25:16.064Z,54.00
2019-03-22T07:27:42.339Z,54.90
2019-03-22T07:30:18.841Z,54.40
2019-03-22T07:32:42.156Z,54.20
2019-03-22T07:35:08.576Z,54.40
2019-03-22T07:37:34.834Z,52.90
2019-03-22T07:40:02.216Z,51.70
2019-03-22T07:42:28.492Z,52.20
2019-03-22T07:44:54.922Z,51.60
2019-03-22T07:47:21.184Z,52.10
2019-03-22T07:49:47.503Z,51.30
2019-03-22T07:52:13.754Z,50.40
2019-03-22T07:54:40.169Z,49.70
2019-03-22T07:57:06.451Z,49.90
2019-03-22T07:59:32.821Z,50.50
2019-03-22T08:01:59.176Z,50.80
2019-03-22T08:04:25.445Z,49.90
2019-03-22T08:06:51.729Z,48.90
2019-03-22T08:09:17.993Z,48.30
2019-03-22T08:11:44.311Z,47.20
2019-03-22T08:14:10.531Z,47.80
2019-03-22T08:16:36.965Z,46.90
2019-03-22T08:19:04.628Z,46.50
2019-03-22T08:21:30.904Z,47.00
2019-03-22T08:23:57.384Z,46.20
2019-03-22T08:26:23.767Z,45.80
2019-03-22T08:28:50.091Z,46.50
2019-03-22T08:31:16.352Z,46.70
2019-03-22T08:33:42.662Z,46.00
2019-03-22T08:36:09.015Z,45.50
2019-03-22T08:38:35.331Z,46.00
2019-03-22T08:41:01.678Z,45.30
2019-03-22T08:43:27.896Z,45.30
2019-03-22T08:45:54.259Z,45.00
2019-03-22T08:48:20.514Z,45.70
2019-03-22T08:50:46.774Z,45.10
2019-03-22T08:53:13.036Z,44.80
2019-03-22T08:55:39.362Z,45.20
2019-03-22T08:58:05.667Z,42.60
2019-03-22T09:00:39.355Z,42.70
2019-03-22T09:03:00.344Z,42.60
2019-03-22T09:05:26.587Z,41.30
2019-03-22T09:07:52.899Z,42.00
2019-03-22T09:10:19.154Z,42.20
2019-03-22T09:12:47.544Z,41.50
2019-03-22T09:15:16.014Z,41.00
2019-03-22T09:17:42.337Z,39.80
2019-03-22T09:20:09.957Z,40.10
2019-03-22T09:22:36.282Z,40.80
2019-03-22T09:25:05.078Z,39.90
2019-03-22T09:27:31.359Z,39.50
2019-03-22T09:29:57.791Z,39.60
2019-03-22T09:32:24.143Z,39.20
2019-03-22T09:34:50.385Z,39.10
2019-03-22T09:37:18.672Z,38.10
2019-03-22T09:39:44.932Z,38.60
2019-03-22T09:42:11.247Z,38.10
2019-03-22T09:44:43.411Z,36.60
2019-03-22T09:47:05.914Z,37.70
2019-03-22T09:49:32.440Z,35.90
2019-03-22T09:51:58.703Z,37.10
2019-03-22T09:54:24.941Z,36.70
2019-03-22T09:56:51.233Z,34.70
2019-03-22T09:59:17.515Z,36.00
2019-03-22T10:01:43.815Z,35.50
2019-03-22T10:04:10.135Z,35.30
2019-03-22T10:06:36.499Z,35.70
2019-03-22T10:09:05.599Z,36.20
2019-03-22T10:11:31.942Z,35.10
2019-03-22T10:13:58.258Z,35.90
2019-03-22T10:16:24.577Z,35.20
2019-03-22T10:18:50.963Z,35.90
2019-03-22T10:21:22.524Z,34.60
2019-03-22T10:23:45.465Z,34.80
2019-03-22T10:26:11.879Z,34.60
2019-03-22T10:28:38.148Z,35.20
2019-03-22T10:31:04.738Z,33.70
2019-03-22T10:33:31.032Z,34.10
2019-03-22T10:35:57.282Z,36.40
2019-03-22T10:38:30.849Z,36.70
2019-03-22T10:40:51.763Z,38.20
2019-03-22T10:43:18.040Z,37.90
2019-03-22T10:45:44.481Z,37.40
2019-03-22T10:48:10.786Z,38.90
2019-03-22T10:50:37.001Z,38.50
2019-03-22T10:53:03.345Z,36.90
2019-03-22T10:55:30.700Z,38.50
2019-03-22T10:57:57.165Z,38.90
2019-03-22T11:00:23.467Z,40.10
2019-03-22T11:02:49.763Z,40.10
2019-03-22T11:05:16.224Z,39.20
2019-03-22T11:07:42.612Z,40.10
2019-03-22T11:10:13.549Z,40.10
2019-03-22T11:12:39.907Z,39.60
2019-03-22T11:15:10.551Z,40.40
2019-03-22T11:17:37.117Z,41.00
2019-03-22T11:20:14.096Z,41.70
2019-03-22T11:22:40.349Z,42.90
2019-03-22T11:25:07.398Z,42.40
2019-03-22T11:27:33.986Z,41.40
2019-03-22T11:30:00.369Z,42.00
2019-03-22T11:32:26.911Z,41.00
2019-03-22T11:34:53.196Z,41.90
2019-03-22T11:37:19.468Z,42.10
2019-03-22T11:39:45.745Z,42.50
2019-03-22T11:42:12.116Z,42.30
2019-03-22T11:44:38.366Z,42.20
2019-03-22T11:47:04.667Z,41.50
2019-03-22T11:49:30.972Z,42.20
2019-03-22T11:51:57.224Z,43.20
2019-03-22T11:54:23.511Z,44.10
2019-03-22T11:56:49.767Z,41.80
2019-03-22T11:59:16.037Z,43.20
2019-03-22T12:01:42.311Z,43.20
2019-03-22T12:04:08.594Z,42.80
2019-03-22T12:06:35.091Z,42.90
2019-03-22T12:09:01.354Z,42.80
2019-03-22T12:11:27.652Z,42.30
2019-03-22T12:13:53.893Z,42.00
2019-03-22T12:16:20.165Z,42.20
2019-03-22T12:18:46.439Z,41.90
2019-03-22T12:21:12.692Z,42.60
2019-03-22T12:26:23.824Z,41.60
2019-03-22T12:28:50.130Z,41.10
2019-03-22T12:31:16.412Z,41.70
2019-03-22T12:33:44.432Z,41.70
2019-03-22T12:36:10.712Z,41.60
2019-03-22T12:38:36.965Z,41.90
2019-03-22T12:41:03.376Z,42.70
2019-03-22T12:43:29.653Z,42.10
2019-03-22T12:45:55.916Z,41.60
2019-03-22T12:48:22.200Z,41.10
2019-03-22T12:50:48.458Z,41.60
2019-03-22T12:53:14.843Z,41.40
2019-03-22T12:55:41.109Z,41.80
2019-03-22T12:58:07.419Z,39.80
2019-03-22T13:00:33.790Z,40.20
2019-03-22T13:03:00.048Z,40.40
2019-03-22T13:05:26.562Z,41.10
2019-03-22T13:07:53.020Z,39.60
2019-03-22T13:10:25.792Z,39.80
2019-03-22T13:12:53.047Z,39.50
2019-03-22T13:15:19.647Z,38.80
2019-03-22T13:17:45.910Z,38.80
2019-03-22T13:20:13.597Z,38.30
2019-03-22T13:22:39.977Z,38.50
2019-03-22T13:25:07.885Z,37.60
2019-03-22T13:27:35.166Z,37.50
2019-03-22T13:30:04.895Z,37.60
2019-03-22T13:32:31.305Z,38.50
2019-03-22T13:34:57.682Z,37.80
2019-03-22T13:37:23.968Z,37.50
2019-03-22T13:39:51.338Z,37.80
2019-03-22T13:42:17.815Z,37.80
2019-03-22T13:44:44.091Z,37.00
2019-03-22T13:47:10.347Z,37.40
2019-03-22T13:49:36.649Z,37.40
2019-03-22T13:52:03.040Z,37.50
2019-03-22T13:54:29.287Z,37.20
2019-03-22T13:56:55.563Z,37.20
2019-03-22T13:59:21.822Z,38.80
2019-03-22T14:01:48.073Z,37.10
2019-03-22T14:04:15.184Z,37.00
2019-03-22T14:06:41.770Z,37.40
2019-03-22T14:09:08.023Z,37.30
2019-03-22T14:11:34.307Z,37.50
2019-03-22T14:14:00.565Z,36.90
2019-03-22T14:16:26.825Z,37.20
2019-03-22T14:18:53.102Z,37.10
2019-03-22T14:21:19.367Z,37.40
2019-03-22T14:23:45.676Z,37.20
2019-03-22T14:26:12.063Z,37.20
2019-03-22T14:28:38.304Z,37.40
2019-03-22T14:31:04.600Z,37.30
2019-03-22T14:33:30.885Z,37.10
2019-03-22T14:35:57.137Z,36.70
2019-03-22T14:38:23.414Z,36.70
2019-03-22T14:40:49.843Z,37.30
2019-03-22T14:43:16.089Z,37.60
2019-03-22T14:45:42.467Z,37.20
2019-03-22T14:48:08.753Z,37.10
2019-03-22T14:50:35.020Z,36.60
2019-03-22T14:53:01.270Z,36.10
2019-03-22T14:55:27.631Z,35.80
2019-03-22T14:57:53.938Z,35.50
2019-03-22T15:00:20.185Z,35.50
2019-03-22T15:02:46.559Z,36.00
2019-03-22T15:05:14.723Z,36.20
2019-03-22T15:07:40.992Z,36.90
2019-03-22T15:10:10.377Z,36.50
2019-03-22T15:12:36.739Z,36.30
2019-03-22T15:15:26.396Z,36.40
2019-03-22T15:18:00.730Z,36.40
2019-03-22T15:20:38.084Z,36.70
2019-03-22T15:23:15.017Z,37.80
2019-03-22T15:25:59.842Z,37.00
2019-03-22T15:28:44.993Z,36.80
2019-03-22T15:31:19.239Z,37.00
2019-03-22T15:34:04.838Z,37.40
2019-03-22T15:36:36.048Z,37.70
2019-03-22T15:39:25.344Z,36.90
2019-03-22T15:41:51.886Z,37.00
2019-03-22T15:44:18.334Z,36.90
2019-03-22T15:46:44.744Z,37.50
2019-03-22T15:49:11.018Z,37.00
2019-03-22T15:51:37.278Z,37.20
2019-03-22T15:54:03.636Z,37.30
2019-03-22T15:56:30.193Z,37.30
2019-03-22T15:58:56.476Z,37.00
2019-03-22T16:01:22.736Z,37.20
2019-03-22T16:03:49.045Z,37.20
2019-03-22T16:06:15.358Z,37.50
2019-03-22T16:08:41.634Z,37.80
2019-03-22T16:11:07.994Z,37.80
2019-03-22T16:13:34.269Z,38.20
2019-03-22T16:16:00.531Z,39.50
2019-03-22T16:18:26.815Z,38.80
2019-03-22T16:20:59.876Z,39.10
2019-03-22T16:23:21.277Z,39.40
2019-03-22T16:25:47.588Z,39.70
2019-03-22T16:28:13.854Z,39.70
2019-03-22T16:30:40.139Z,39.70
2019-03-22T16:33:06.433Z,40.00
2019-03-22T16:35:32.689Z,40.10
2019-03-22T16:37:59.026Z,40.40
2019-03-22T16:40:25.283Z,40.60
2019-03-22T16:42:51.536Z,40.70
2019-03-22T16:45:41.597Z,40.90
2019-03-22T16:48:08.193Z,41.20
2019-03-22T16:50:34.443Z,41.80
2019-03-22T16:53:00.763Z,42.00
2019-03-22T16:55:27.055Z,42.60
2019-03-22T16:57:53.313Z,43.10
2019-03-22T17:00:19.882Z,43.00
2019-03-22T17:02:46.164Z,43.60
2019-03-22T17:05:12.952Z,43.80
2019-03-22T17:07:39.235Z,44.10
2019-03-22T17:10:06.148Z,44.50
2019-03-22T17:12:32.452Z,44.90
2019-03-22T17:14:58.723Z,45.30
2019-03-22T17:17:25.000Z,45.60
2019-03-22T17:19:51.258Z,45.60
2019-03-22T17:22:17.629Z,45.80
2019-03-22T17:24:43.897Z,46.10
2019-03-22T17:27:10.189Z,46.60
2019-03-22T17:29:36.454Z,47.70
2019-03-22T17:32:02.865Z,48.40
2019-03-22T17:34:29.140Z,49.10
2019-03-22T17:36:55.401Z,49.80
2019-03-22T17:39:21.696Z,50.60
2019-03-22T17:41:48.127Z,51.30
2019-03-22T17:44:14.582Z,51.60
2019-03-22T17:46:40.852Z,51.80
2019-03-22T17:49:07.315Z,52.00
2019-03-22T17:51:33.583Z,52.70
2019-03-22T17:54:00.003Z,53.40
2019-03-22T17:56:26.377Z,53.40
2019-03-22T17:58:52.682Z,53.90
2019-03-22T18:01:19.009Z,54.30
2019-03-22T18:03:45.330Z,54.40
2019-03-22T18:06:11.658Z,55.60
2019-03-22T18:08:37.936Z,54.90
2019-03-22T18:11:04.222Z,55.30
2019-03-22T18:13:32.377Z,55.70
2019-03-22T18:15:58.675Z,55.80
2019-03-22T18:18:25.027Z,56.20
2019-03-22T18:20:51.417Z,56.20
2019-03-22T18:23:17.738Z,56.60
2019-03-22T18:25:44.011Z,56.90
2019-03-22T18:28:10.281Z,57.00
2019-03-22T18:30:36.550Z,57.40
2019-03-22T18:33:02.931Z,57.60
2019-03-22T18:35:29.374Z,58.10
2019-03-22T18:37:55.691Z,58.40
2019-03-22T18:40:22.160Z,58.70
2019-03-22T18:42:48.456Z,58.80
2019-03-22T18:45:15.047Z,58.80
2019-03-22T18:47:41.947Z,59.00
2019-03-22T18:50:10.499Z,59.20
2019-03-22T18:52:37.089Z,59.70
2019-03-22T18:55:05.316Z,60.20
2019-03-22T18:57:31.627Z,60.30
2019-03-22T18:59:57.916Z,60.30
2019-03-22T19:02:24.217Z,60.60
2019-03-22T19:04:50.559Z,60.80
2019-03-22T19:07:16.840Z,61.90
2019-03-22T19:09:43.169Z,62.20
2019-03-22T19:12:09.431Z,62.50
2019-03-22T19:14:36.170Z,62.70
2019-03-22T19:17:02.677Z,62.90
2019-03-22T19:19:28.934Z,63.40
2019-03-22T19:21:55.219Z,64.10
2019-03-22T19:24:21.504Z,64.00
2019-03-22T19:26:47.918Z,63.90
2019-03-22T19:29:14.359Z,64.30
2019-03-22T19:31:40.835Z,64.70
2019-03-22T19:34:07.294Z,65.10
2019-03-22T19:36:33.573Z,65.20
2019-03-22T19:39:00.814Z,65.20
2019-03-22T19:41:27.293Z,65.50
2019-03-22T19:43:54.396Z,65.90
2019-03-22T19:46:31.459Z,66.00
2019-03-22T19:48:58.462Z,66.10
2019-03-22T19:51:25.318Z,66.20
2019-03-22T19:53:51.879Z,66.40
2019-03-22T19:56:18.755Z,66.80
2019-03-22T19:58:45.072Z,67.20
2019-03-22T20:01:11.554Z,67.40
2019-03-22T20:03:38.706Z,67.50
2019-03-22T20:06:05.990Z,67.60
2019-03-22T20:08:33.024Z,67.80
2019-03-22T20:10:59.812Z,68.00
2019-03-22T20:13:27.136Z,68.10
2019-03-22T20:15:54.167Z,68.40
2019-03-22T20:18:21.698Z,68.50
2019-03-22T20:20:49.243Z,68.50
2019-03-22T20:23:17.214Z,68.70
2019-03-22T20:25:44.937Z,68.90
2019-03-22T20:28:12.850Z,68.90
2019-03-22T20:30:40.726Z,70.00
2019-03-22T20:33:08.648Z,69.40
2019-03-22T20:35:36.674Z,69.50
2019-03-22T20:38:03.226Z,69.70
2019-03-22T20:40:30.131Z,69.80
2019-03-22T20:42:56.431Z,70.10
2019-03-22T20:45:24.303Z,70.10
2019-03-22T20:47:51.487Z,70.20
2019-03-22T20:50:18.056Z,70.30
2019-03-22T20:52:46.039Z,70.30
2019-03-22T20:55:12.887Z,70.40
2019-03-22T20:57:39.583Z,70.50
2019-03-22T21:00:11.525Z,70.60
2019-03-22T21:02:38.435Z,71.60
2019-03-22T21:05:05.553Z,71.00
2019-03-22T21:07:32.481Z,71.10
2019-03-22T21:09:59.562Z,71.30
2019-03-22T21:12:26.456Z,71.60
2019-03-22T21:14:53.379Z,71.80
2019-03-22T21:17:20.377Z,71.80
2019-03-22T21:19:46.653Z,72.20
2019-03-22T21:22:12.925Z,72.30
2019-03-22T21:24:39.483Z,72.50
2019-03-22T21:27:15.228Z,72.50
2019-03-22T21:29:43.702Z,72.70
2019-03-22T21:32:02.729Z,72.90
2019-03-22T21:34:29.070Z,73.00
2019-03-22T21:36:55.356Z,73.00
2019-03-22T21:39:21.619Z,73.10
2019-03-22T21:41:47.890Z,73.40
2019-03-22T21:44:15.406Z,73.60
2019-03-22T21:46:41.699Z,73.80
2019-03-22T21:49:07.961Z,73.90
2019-03-22T21:51:34.279Z,73.90
2019-03-22T21:54:00.543Z,73.90
2019-03-22T21:56:27.571Z,74.10
2019-03-22T21:58:53.832Z,74.40
2019-03-22T22:01:20.220Z,74.60
2019-03-22T22:03:46.520Z,74.80
2019-03-22T22:06:12.856Z,74.60
2019-03-22T22:08:39.259Z,74.80
2019-03-22T22:11:05.570Z,74.80
2019-03-22T22:13:31.826Z,74.80
2019-03-22T22:15:58.113Z,75.00
2019-03-22T22:18:24.584Z,74.90
2019-03-22T22:20:50.891Z,75.10
2019-03-22T22:23:17.236Z,75.20
2019-03-22T22:25:43.519Z,75.30
2019-03-22T22:28:09.886Z,75.30
2019-03-22T22:30:36.171Z,75.40
2019-03-22T22:33:02.431Z,75.50
2019-03-22T22:35:28.786Z,75.60
2019-03-22T22:37:55.062Z,75.70
2019-03-22T22:40:21.333Z,75.60
2019-03-22T22:42:47.624Z,75.60
2019-03-22T22:45:13.981Z,75.70
2019-03-22T22:47:40.258Z,75.80
2019-03-22T22:50:09.458Z,75.80
2019-03-22T22:52:35.786Z,76.00
2019-03-22T22:55:03.559Z,76.00
2019-03-22T22:57:29.848Z,76.20
2019-03-22T22:59:56.132Z,76.30
2019-03-22T23:02:22.393Z,76.40
2019-03-22T23:04:48.666Z,76.60
2019-03-22T23:07:14.967Z,76.70
2019-03-22T23:09:41.313Z,76.70
2019-03-22T23:12:07.574Z,76.80
2019-03-22T23:14:33.874Z,77.00
2019-03-22T23:17:00.123Z,76.90
2019-03-22T23:19:26.407Z,77.00
2019-03-22T23:21:53.260Z,77.30
2019-03-22T23:24:19.516Z,77.20
2019-03-22T23:26:45.833Z,77.40
2019-03-22T23:29:12.100Z,77.50
2019-03-22T23:31:38.388Z,77.50
2019-03-22T23:34:04.657Z,77.60
2019-03-22T23:36:30.932Z,77.80
2019-03-22T23:38:57.271Z,78.50
2019-03-22T23:41:23.521Z,78.00
2019-03-22T23:43:50.448Z,78.10
2019-03-22T23:46:16.823Z,78.10
2019-03-22T23:48:43.191Z,78.20
2019-03-22T23:51:09.459Z,78.40
2019-03-22T23:53:35.742Z,78.40
2019-03-22T23:56:02.030Z,78.50
2019-03-22T23:58:28.270Z,78.50
